createdAt,value
2022-10-16T00:02:19.840Z,65.00
2022-10-16T00:07:24.551Z,65.00
2022-10-16T00:12:28.117Z,64.90
2022-10-16T00:17:32.963Z,64.80
2022-10-16T00:22:37.312Z,64.80
2022-10-16T00:27:40.316Z,64.90
2022-10-16T00:32:43.247Z,64.80
2022-10-16T00:37:47.588Z,64.60
2022-10-16T00:42:50.515Z,64.70
2022-10-16T00:47:55.888Z,64.70
2022-10-16T00:53:02.067Z,64.80
2022-10-16T00:58:05.042Z,64.80
2022-10-16T01:03:27.239Z,64.80
2022-10-16T01:08:41.163Z,64.80
2022-10-16T01:13:50.789Z,64.70
2022-10-16T01:18:59.256Z,64.80
2022-10-16T01:24:10.741Z,64.80
2022-10-16T01:29:20.912Z,64.80
2022-10-16T01:34:33.837Z,64.90
2022-10-16T01:39:40.543Z,64.80
2022-10-16T01:44:48.306Z,64.90
2022-10-16T01:49:52.993Z,64.60
2022-10-16T01:54:58.713Z,64.50
2022-10-16T02:00:07.776Z,65.40
2022-10-16T02:05:20.620Z,64.90
2022-10-16T02:10:24.667Z,65.10
2022-10-16T02:15:29.009Z,65.10
2022-10-16T02:20:36.164Z,65.10
2022-10-16T02:25:44.312Z,64.90
2022-10-16T02:30:53.033Z,64.90
2022-10-16T02:35:56.889Z,65.00
2022-10-16T02:41:00.185Z,65.00
2022-10-16T02:46:04.502Z,65.10
2022-10-16T02:51:08.175Z,65.00
2022-10-16T02:56:11.216Z,65.10
2022-10-16T03:01:17.734Z,65.10
2022-10-16T03:06:20.804Z,65.20
2022-10-16T03:11:23.767Z,65.20
2022-10-16T03:16:28.141Z,65.20
2022-10-16T03:21:31.160Z,65.20
2022-10-16T03:26:34.189Z,65.10
2022-10-16T03:31:38.597Z,65.20
2022-10-16T03:36:41.575Z,65.20
2022-10-16T03:41:45.637Z,65.20
2022-10-16T03:46:49.942Z,65.20
2022-10-16T03:51:52.878Z,65.20
2022-10-16T03:56:55.823Z,65.20
2022-10-16T04:02:00.119Z,65.10
2022-10-16T04:07:03.054Z,64.70
2022-10-16T04:12:06.003Z,64.40
2022-10-16T04:17:10.284Z,64.50
2022-10-16T04:22:13.365Z,64.60
2022-10-16T04:27:16.385Z,64.70
2022-10-16T04:32:20.671Z,64.80
2022-10-16T04:37:27.292Z,64.60
2022-10-16T04:42:30.504Z,64.60
2022-10-16T04:47:34.822Z,64.60
2022-10-16T04:52:37.768Z,64.70
2022-10-16T04:57:40.727Z,64.60
2022-10-16T05:02:45.068Z,64.70
2022-10-16T05:07:48.112Z,64.80
2022-10-16T05:12:52.169Z,64.90
2022-10-16T05:17:57.445Z,65.00
2022-10-16T05:23:00.534Z,65.20
2022-10-16T05:28:03.644Z,65.00
2022-10-16T05:33:07.999Z,65.10
2022-10-16T05:38:11.070Z,65.10
2022-10-16T05:43:13.993Z,65.10
2022-10-16T05:48:18.276Z,65.00
2022-10-16T05:53:26.359Z,65.10
2022-10-16T05:58:32.345Z,65.90
2022-10-16T06:03:36.709Z,65.20
2022-10-16T06:08:39.977Z,65.20
2022-10-16T06:13:43.598Z,65.10
2022-10-16T06:18:48.502Z,65.00
2022-10-16T06:23:51.475Z,65.20
2022-10-16T06:28:56.252Z,65.10
2022-10-16T06:34:01.078Z,65.30
2022-10-16T06:39:04.576Z,65.40
2022-10-16T06:44:08.471Z,65.30
2022-10-16T06:49:12.957Z,65.40
2022-10-16T06:54:17.138Z,65.60
2022-10-16T06:59:20.340Z,65.70
2022-10-16T07:04:24.720Z,65.60
2022-10-16T07:09:27.883Z,65.70
2022-10-16T07:14:31.135Z,65.70
2022-10-16T07:19:35.485Z,65.60
2022-10-16T07:24:38.446Z,65.70
2022-10-16T07:29:41.499Z,65.80
2022-10-16T07:34:46.685Z,66.10
2022-10-16T07:39:49.655Z,66.20
2022-10-16T07:44:52.614Z,66.30
2022-10-16T07:49:56.881Z,66.40
2022-10-16T07:54:59.816Z,66.50
2022-10-16T08:00:02.709Z,66.40
2022-10-16T08:05:16.673Z,66.50
2022-10-16T08:10:21.038Z,66.50
2022-10-16T08:15:24.053Z,66.50
2022-10-16T08:20:29.018Z,66.60
2022-10-16T08:25:32.074Z,66.70
2022-10-16T08:30:35.291Z,66.70
2022-10-16T08:35:39.645Z,66.80
2022-10-16T08:40:45.853Z,66.80
2022-10-16T08:46:05.480Z,66.80
2022-10-16T08:51:13.829Z,66.90
2022-10-16T08:56:17.096Z,66.90
2022-10-16T09:01:24.140Z,66.90
2022-10-16T09:06:47.679Z,67.20
2022-10-16T09:11:57.946Z,67.40
2022-10-16T09:17:06.398Z,67.20
2022-10-16T09:22:16.520Z,67.20
2022-10-16T09:27:19.475Z,67.00
2022-10-16T09:32:24.207Z,67.20
2022-10-16T09:37:29.275Z,67.70
2022-10-16T09:42:36.608Z,67.30
2022-10-16T09:47:44.119Z,67.10
2022-10-16T09:52:48.442Z,67.10
2022-10-16T09:57:51.857Z,66.90
2022-10-16T10:08:01.886Z,66.60
2022-10-16T10:13:04.986Z,66.60
2022-10-16T10:18:20.498Z,66.70
2022-10-16T10:23:27.337Z,66.90
2022-10-16T10:28:48.868Z,67.00
2022-10-16T10:33:59.910Z,67.10
2022-10-16T10:39:09.461Z,67.30
2022-10-16T10:44:23.766Z,67.00
2022-10-16T10:49:44.178Z,67.60
2022-10-16T10:54:56.271Z,66.60
2022-10-16T11:00:08.997Z,67.20
2022-10-16T11:05:32.764Z,66.70
2022-10-16T11:10:44.895Z,66.00
2022-10-16T11:15:50.694Z,66.00
2022-10-16T11:20:58.318Z,66.10
2022-10-16T11:26:07.757Z,65.80
2022-10-16T11:31:17.015Z,65.50
2022-10-16T11:36:24.781Z,65.60
2022-10-16T11:41:35.411Z,65.80
2022-10-16T11:46:58.920Z,66.10
2022-10-16T11:52:09.837Z,66.30
2022-10-16T11:57:20.710Z,65.80
2022-10-16T12:02:37.267Z,65.90
2022-10-16T12:07:48.855Z,65.70
2022-10-16T12:12:53.428Z,65.40
2022-10-16T12:17:56.964Z,65.40
2022-10-16T12:23:02.884Z,65.30
2022-10-16T12:28:19.564Z,65.00
2022-10-16T12:33:25.659Z,64.80
2022-10-16T12:38:30.800Z,64.50
2022-10-16T12:43:44.369Z,64.40
2022-10-16T12:49:05.686Z,63.80
2022-10-16T12:54:16.324Z,64.30
2022-10-16T12:59:30.774Z,63.40
2022-10-16T13:05:00.460Z,63.10
2022-10-16T13:10:15.614Z,62.80
2022-10-16T13:15:30.975Z,63.00
2022-10-16T13:20:37.944Z,63.20
2022-10-16T13:25:49.304Z,63.50
2022-10-16T13:30:56.764Z,63.00
2022-10-16T13:36:00.398Z,63.10
2022-10-16T13:41:05.795Z,63.50
2022-10-16T13:46:15.931Z,63.10
2022-10-16T13:51:20.427Z,62.30
2022-10-16T13:56:26.755Z,63.10
2022-10-16T14:01:33.080Z,63.80
2022-10-16T14:06:38.000Z,63.80
2022-10-16T14:11:50.052Z,63.30
2022-10-16T14:16:54.561Z,62.50
2022-10-16T14:21:58.652Z,63.30
2022-10-16T14:27:02.717Z,63.20
2022-10-16T14:32:25.983Z,62.50
2022-10-16T14:37:31.345Z,61.90
2022-10-16T14:42:34.616Z,61.90
2022-10-16T14:47:48.976Z,61.70
2022-10-16T14:52:52.059Z,61.50
2022-10-16T14:57:58.303Z,61.60
2022-10-16T15:03:05.236Z,61.60
2022-10-16T15:08:08.310Z,61.60
2022-10-16T15:13:14.734Z,61.70
2022-10-16T15:18:21.294Z,61.40
2022-10-16T15:28:32.394Z,61.50
2022-10-16T15:33:39.678Z,61.50
2022-10-16T15:38:43.257Z,61.30
2022-10-16T15:43:46.396Z,61.50
2022-10-16T15:48:51.709Z,61.30
2022-10-16T15:53:55.074Z,61.30
2022-10-16T15:58:59.201Z,61.40
2022-10-16T16:04:15.476Z,61.30
2022-10-16T16:09:27.662Z,61.30
2022-10-16T16:14:30.705Z,61.20
2022-10-16T16:19:35.804Z,61.10
2022-10-16T16:24:38.856Z,61.20
2022-10-16T16:29:41.851Z,61.20
2022-10-16T16:34:46.204Z,61.30
2022-10-16T16:39:49.103Z,61.30
2022-10-16T16:44:52.060Z,61.40
2022-10-16T16:49:59.006Z,61.40
2022-10-16T16:55:02.805Z,61.60
2022-10-16T17:00:07.240Z,61.70
2022-10-16T17:05:11.763Z,61.80
2022-10-16T17:10:14.735Z,62.00
2022-10-16T17:15:17.821Z,62.10
2022-10-16T17:20:22.211Z,62.30
2022-10-16T17:25:25.534Z,62.30
2022-10-16T17:30:28.520Z,62.40
2022-10-16T17:35:38.479Z,62.40
2022-10-16T17:40:42.264Z,62.70
2022-10-16T17:45:45.229Z,62.60
2022-10-16T17:50:49.532Z,62.60
2022-10-16T17:55:57.031Z,62.60
2022-10-16T18:01:00.347Z,62.40
2022-10-16T18:06:05.187Z,62.30
2022-10-16T18:11:08.162Z,62.40
2022-10-16T18:16:15.028Z,62.30
2022-10-16T18:21:20.815Z,62.30
2022-10-16T18:26:24.798Z,62.00
2022-10-16T18:31:27.970Z,61.90
2022-10-16T18:36:36.166Z,61.80
2022-10-16T18:41:40.216Z,62.80
2022-10-16T18:46:43.170Z,62.00
2022-10-16T18:51:48.589Z,62.10
2022-10-16T18:56:53.191Z,62.10
2022-10-16T19:01:56.264Z,62.10
2022-10-16T19:07:00.628Z,62.10
2022-10-16T19:12:03.622Z,62.10
2022-10-16T19:17:06.562Z,62.10
2022-10-16T19:22:27.460Z,62.20
2022-10-16T19:27:30.808Z,62.50
2022-10-16T19:32:33.826Z,62.40
2022-10-16T19:37:38.469Z,62.50
2022-10-16T19:42:45.025Z,62.60
2022-10-16T19:47:48.222Z,62.70
2022-10-16T19:52:52.555Z,62.70
2022-10-16T19:57:55.508Z,62.60
2022-10-16T20:02:58.416Z,62.50
2022-10-16T20:08:02.677Z,62.70
2022-10-16T20:13:05.821Z,62.90
2022-10-16T20:18:08.740Z,62.90
2022-10-16T20:23:13.358Z,62.90
2022-10-16T20:28:18.395Z,63.20
2022-10-16T20:33:21.381Z,63.20
2022-10-16T20:38:26.293Z,63.10
2022-10-16T20:43:29.313Z,62.90
2022-10-16T20:48:32.760Z,62.60
2022-10-16T20:53:38.841Z,62.70
2022-10-16T20:58:42.585Z,62.70
2022-10-16T21:03:50.556Z,63.30
2022-10-16T21:08:55.357Z,62.60
2022-10-16T21:14:00.546Z,62.60
2022-10-16T21:19:03.665Z,62.70
2022-10-16T21:24:12.184Z,62.70
2022-10-16T21:29:18.216Z,62.90
2022-10-16T21:34:21.236Z,62.90
2022-10-16T21:39:25.926Z,62.90
2022-10-16T21:44:28.951Z,63.00
2022-10-16T21:49:32.006Z,63.00
2022-10-16T21:54:36.332Z,62.90
2022-10-16T21:59:39.300Z,62.80
2022-10-16T22:04:42.341Z,62.70
2022-10-16T22:09:46.713Z,62.50
2022-10-16T22:14:49.781Z,62.50
2022-10-16T22:19:52.789Z,62.50
2022-10-16T22:24:57.444Z,62.40
2022-10-16T22:30:00.468Z,62.40
2022-10-16T22:35:03.565Z,62.20
2022-10-16T22:40:09.588Z,62.20
2022-10-16T22:45:12.635Z,62.20
2022-10-16T22:50:16.034Z,62.40
2022-10-16T22:55:20.805Z,62.50
2022-10-16T23:00:24.447Z,62.50
2022-10-16T23:05:27.553Z,62.30
2022-10-16T23:10:32.013Z,62.50
2022-10-16T23:15:35.217Z,62.60
2022-10-16T23:20:41.451Z,62.50
2022-10-16T23:25:48.189Z,62.70
2022-10-16T23:30:51.189Z,62.70
2022-10-16T23:35:54.268Z,62.60
2022-10-16T23:40:58.655Z,62.70
2022-10-16T23:46:02.131Z,63.50
2022-10-16T23:51:05.380Z,62.70
2022-10-16T23:56:10.245Z,62.90
